Terminal Aerodrome Forecast
Issued by NWS Greer, SC

Home | Current Version | Previous Version | Text Only | Print | Product List | Glossary On
Versions: 1 2 3 4 5 6 7 8 9 10 11 12 13 14 15 16 17 18 19 20 21 22 23 24 25 26 27 28 29 30 31 32 33 34 35 36 37 38 39 40 41 42 43 44 45 46 47 48 49 50
690
FTUS42 KGSP 230059 AAA
TAFCLT
TAF AMD
KCLT 230059Z 2301/2324 08011G20KT P6SM -SHRA SCT009 BKN030 OVC080
     FM230400 14013KT P6SM -TSRA OVC003CB
     FM230600 18011KT P6SM BKN008
      TEMPO 2306/2309 4SM -TSRA OVC003CB
     FM230900 20006KT 4SM -TSRA BKN003CB OVC045
     FM231400 24008KT P6SM -SHRA BKN003 OVC045
     FM232100 29009KT P6SM -SHRA BKN045=

USA.gov is the U.S. government's official web portal to all federal, state and local government web resources and services.